Time;durP1;ratioP1;P1;durP2;ratioP2;P2;SDS_P1;SDS_P2;PMS_P1;PMS_P2;Temp;Humidity;BMP_temperature;BMP_pressure;BME280_temperature;BME280_humidity;BME280_pressure;Samples;Min_cycle;Max_cycle;Signal;HPM_P1;HPM_P2
2022/05/15 00:02:11;;;;;;;0.50;0.50;;;11.80;1.00;;;;;;5033697;28;20718;-75
2022/05/15 00:04:37;;;;;;;0.47;0.47;;;11.70;1.00;;;;;;5033235;28;20219;-76
2022/05/15 00:07:04;;;;;;;0.47;0.47;;;11.70;1.00;;;;;;5033307;28;20262;-76
2022/05/15 00:09:29;;;;;;;0.40;0.40;;;11.70;1.00;;;;;;5032904;28;20183;-75
2022/05/15 00:11:55;;;;;;;0.50;0.50;;;11.70;1.00;;;;;;5033401;28;20192;-76
2022/05/15 00:14:20;;;;;;;0.60;0.60;;;11.70;1.00;;;;;;5033203;28;20188;-75
2022/05/15 00:16:46;;;;;;;0.40;0.40;;;11.70;1.00;;;;;;5033176;28;20261;-76
2022/05/15 00:19:12;;;;;;;0.50;0.50;;;11.70;1.00;;;;;;5032551;28;20326;-75
2022/05/15 00:21:38;;;;;;;0.50;0.50;;;11.70;1.00;;;;;;5027458;28;20211;-76
2022/05/15 00:24:05;;;;;;;0.50;0.50;;;11.60;1.00;;;;;;5032643;28;20265;-76
2022/05/15 00:26:31;;;;;;;0.50;0.50;;;11.60;1.00;;;;;;5033062;28;20180;-76
2022/05/15 00:28:57;;;;;;;0.50;0.50;;;11.50;1.00;;;;;;5032298;28;20188;-76
2022/05/15 00:31:23;;;;;;;0.50;0.50;;;11.40;1.00;;;;;;5032854;28;20203;-76
2022/05/15 00:33:50;;;;;;;0.70;0.70;;;11.30;1.00;;;;;;5032715;28;20183;-76
2022/05/15 00:36:15;;;;;;;0.50;0.50;;;11.20;1.00;;;;;;5032966;28;20227;-77
2022/05/15 00:38:41;;;;;;;0.53;0.53;;;11.10;1.00;;;;;;5032774;28;20187;-76
2022/05/15 00:41:08;;;;;;;0.57;0.57;;;11.10;1.00;;;;;;5032252;28;20230;-76
2022/05/15 00:43:42;;;;;;;0.50;0.50;;;11.20;1.00;;;;;;5032588;28;22065;-75
2022/05/15 00:46:14;;;;;;;0.50;0.50;;;11.10;1.00;;;;;;5032628;28;20226;-76
2022/05/15 00:48:39;;;;;;;0.50;0.50;;;11.10;1.00;;;;;;5032413;28;20506;-76
2022/05/15 00:51:28;;;;;;;0.60;0.60;;;11.10;1.00;;;;;;5032417;28;20206;-75
2022/05/15 00:53:58;;;;;;;0.60;0.60;;;11.10;1.00;;;;;;5032451;28;20176;-75
2022/05/15 00:56:26;;;;;;;0.50;0.50;;;11.10;1.00;;;;;;5032418;28;20669;-76
2022/05/15 00:58:59;;;;;;;0.70;0.70;;;11.10;1.00;;;;;;5031937;28;20275;-76
2022/05/15 01:01:24;;;;;;;0.50;0.50;;;11.10;1.00;;;;;;5031424;28;20250;-76
2022/05/15 01:03:50;;;;;;;0.60;0.60;;;11.10;1.00;;;;;;5032545;28;20234;-76
2022/05/15 01:06:17;;;;;;;0.43;0.43;;;11.10;1.00;;;;;;5032310;28;20179;-77
2022/05/15 01:08:42;;;;;;;0.50;0.50;;;11.10;1.00;;;;;;5032109;28;20212;-77
2022/05/15 01:11:12;;;;;;;0.50;0.50;;;11.10;1.00;;;;;;5031496;28;20234;-76
2022/05/15 01:13:40;;;;;;;0.60;0.60;;;11.10;1.00;;;;;;5032135;28;20652;-76
2022/05/15 01:16:06;;;;;;;0.63;0.63;;;11.00;1.00;;;;;;5031876;28;20633;-76
2022/05/15 01:18:34;;;;;;;0.60;0.60;;;11.00;1.00;;;;;;5031947;28;20180;-76
2022/05/15 01:21:02;;;;;;;0.50;0.50;;;11.00;1.00;;;;;;5031568;28;20261;-76
2022/05/15 01:23:31;;;;;;;0.50;0.50;;;11.00;1.00;;;;;;5031925;28;20563;-77
2022/05/15 01:25:58;;;;;;;0.53;0.53;;;11.00;1.00;;;;;;5031784;28;20663;-76
2022/05/15 01:28:26;;;;;;;0.60;0.60;;;11.00;1.00;;;;;;5032041;28;20176;-77
2022/05/15 01:30:55;;;;;;;0.60;0.60;;;10.90;1.00;;;;;;5031506;28;20207;-75
2022/05/15 01:33:21;;;;;;;0.60;0.60;;;10.90;1.00;;;;;;5031945;28;20306;-76
2022/05/15 01:35:47;;;;;;;0.60;0.60;;;10.90;1.00;;;;;;5031604;28;20551;-76
2022/05/15 01:38:13;;;;;;;0.60;0.60;;;10.80;1.00;;;;;;5031831;28;20176;-76
2022/05/15 01:40:40;;;;;;;0.40;0.40;;;10.80;1.00;;;;;;5031289;28;20208;-77
2022/05/15 01:43:07;;;;;;;0.60;0.60;;;10.80;1.00;;;;;;5031829;28;20253;-76
2022/05/15 01:45:33;;;;;;;0.70;0.70;;;10.70;1.00;;;;;;5031817;28;20226;-76
2022/05/15 01:47:59;;;;;;;0.60;0.60;;;10.70;1.00;;;;;;5031956;28;20263;-77
2022/05/15 01:50:24;;;;;;;0.60;0.60;;;10.60;1.00;;;;;;5031095;28;20198;-76
2022/05/15 01:52:50;;;;;;;0.57;0.57;;;10.60;1.00;;;;;;5031809;28;20172;-75
2022/05/15 01:55:15;;;;;;;0.50;0.50;;;10.60;1.00;;;;;;5032070;28;20805;-77
2022/05/15 01:57:41;;;;;;;0.50;0.50;;;10.60;1.00;;;;;;5032181;28;20533;-76
2022/05/15 02:00:11;;;;;;;0.50;0.50;;;10.60;1.00;;;;;;5031120;28;20673;-76
2022/05/15 02:02:39;;;;;;;0.50;0.50;;;10.60;1.00;;;;;;5031360;28;20707;-76
2022/05/15 02:05:06;;;;;;;0.60;0.60;;;10.60;1.00;;;;;;5031309;28;20222;-76
2022/05/15 02:07:32;;;;;;;0.60;0.60;;;10.60;1.00;;;;;;5031308;28;20229;-76
2022/05/15 02:09:57;;;;;;;0.63;0.63;;;10.60;1.00;;;;;;5031105;28;20180;-76
2022/05/15 02:12:23;;;;;;;0.60;0.60;;;10.50;1.00;;;;;;5033509;28;20200;-76
2022/05/15 02:14:48;;;;;;;0.60;0.60;;;10.50;1.00;;;;;;5035637;28;20180;-76
2022/05/15 02:17:14;;;;;;;0.50;0.50;;;10.50;1.00;;;;;;5035356;28;20175;-76
2022/05/15 02:19:39;;;;;;;0.50;0.50;;;10.40;1.00;;;;;;5034975;28;20176;-76
2022/05/15 02:22:05;;;;;;;0.60;0.60;;;10.40;1.00;;;;;;5035294;28;20275;-76
2022/05/15 02:24:31;;;;;;;0.50;0.50;;;10.40;1.00;;;;;;5036050;28;20217;-76
2022/05/15 02:26:56;;;;;;;0.50;0.50;;;10.30;1.00;;;;;;5036077;28;20183;-76
2022/05/15 02:29:22;;;;;;;0.70;0.70;;;10.30;1.00;;;;;;5035622;28;20601;-77
2022/05/15 02:31:48;;;;;;;0.60;0.60;;;10.30;1.00;;;;;;5035624;28;20699;-77
2022/05/15 02:34:13;;;;;;;0.50;0.50;;;10.20;1.00;;;;;;5033929;28;20176;-76
2022/05/15 02:36:39;;;;;;;0.70;0.70;;;10.20;1.00;;;;;;5031290;28;20176;-77
2022/05/15 02:39:04;;;;;;;0.50;0.50;;;10.20;1.00;;;;;;5034254;28;20168;-76
2022/05/15 02:41:30;;;;;;;0.60;0.60;;;10.20;1.00;;;;;;5034938;28;20273;-75
2022/05/15 02:43:56;;;;;;;0.60;0.60;;;10.20;1.00;;;;;;5035021;28;20332;-75
2022/05/15 02:46:22;;;;;;;0.60;0.60;;;10.20;1.00;;;;;;5034887;28;20203;-76
2022/05/15 02:51:31;;;;;;;0.60;0.60;;;10.20;1.00;;;;;;5034777;28;20210;-75
2022/05/15 02:53:57;;;;;;;0.50;0.50;;;10.20;1.00;;;;;;5034934;28;20583;-76
2022/05/15 02:56:26;;;;;;;0.60;0.60;;;10.10;1.00;;;;;;5034682;28;20168;-75
2022/05/15 02:58:51;;;;;;;0.60;0.60;;;10.10;1.00;;;;;;5034155;28;20210;-76
2022/05/15 03:01:18;;;;;;;0.50;0.50;;;10.10;1.00;;;;;;5034472;28;20196;-75
2022/05/15 03:03:43;;;;;;;0.70;0.70;;;10.10;1.00;;;;;;5034560;28;20645;-75
2022/05/15 03:06:10;;;;;;;0.50;0.50;;;10.00;1.00;;;;;;5034718;28;20267;-75
2022/05/15 03:08:39;;;;;;;0.60;0.60;;;10.00;1.00;;;;;;5034432;28;20176;-75
2022/05/15 03:11:04;;;;;;;0.70;0.70;;;10.00;1.00;;;;;;5034191;28;20207;-76
2022/05/15 03:13:30;;;;;;;0.60;0.60;;;10.00;1.00;;;;;;5034354;28;20229;-75
2022/05/15 03:15:57;;;;;;;0.60;0.60;;;10.00;1.00;;;;;;5034683;28;20600;-75
2022/05/15 03:18:22;;;;;;;0.60;0.60;;;10.00;1.00;;;;;;5034237;28;20210;-75
2022/05/15 03:20:48;;;;;;;0.50;0.50;;;10.00;1.00;;;;;;5034036;28;20218;-75
2022/05/15 03:23:13;;;;;;;0.70;0.70;;;10.00;1.00;;;;;;5033275;28;20547;-75
2022/05/15 03:25:40;;;;;;;0.57;0.57;;;9.90;1.00;;;;;;5034151;28;20215;-75
2022/05/15 03:28:09;;;;;;;0.60;0.60;;;9.90;1.00;;;;;;5034123;28;20172;-75
2022/05/15 03:30:36;;;;;;;0.70;0.70;;;9.90;1.00;;;;;;5033529;28;20310;-76
2022/05/15 03:33:02;;;;;;;0.47;0.47;;;9.90;1.00;;;;;;5033997;28;20171;-75
2022/05/15 03:35:28;;;;;;;0.60;0.60;;;10.00;1.00;;;;;;5033971;28;20176;-76
2022/05/15 03:37:53;;;;;;;0.57;0.57;;;9.80;1.00;;;;;;5034055;28;20176;-76
2022/05/15 03:40:19;;;;;;;0.60;0.60;;;9.90;1.00;;;;;;5033428;28;20211;-75
2022/05/15 03:42:45;;;;;;;0.60;0.60;;;9.80;1.00;;;;;;5033723;28;20195;-76
2022/05/15 03:45:11;;;;;;;0.60;0.60;;;9.80;1.00;;;;;;5033837;28;20811;-75
2022/05/15 03:47:47;;;;;;;0.60;0.60;;;9.70;1.00;;;;;;5033620;28;20186;-76
2022/05/15 03:50:14;;;;;;;0.67;0.67;;;9.70;1.00;;;;;;5033441;28;20529;-76
2022/05/15 03:52:40;;;;;;;0.60;0.60;;;9.60;1.00;;;;;;5033675;28;20203;-75
2022/05/15 03:55:07;;;;;;;0.60;0.60;;;9.60;1.00;;;;;;5033748;28;20180;-75
2022/05/15 03:57:33;;;;;;;0.60;0.60;;;9.60;1.00;;;;;;5033397;28;20234;-75
2022/05/15 03:59:58;;;;;;;0.60;0.60;;;9.70;1.00;;;;;;5032920;28;20180;-75
2022/05/15 04:02:24;;;;;;;0.70;0.70;;;9.70;1.00;;;;;;5033612;28;20225;-75
2022/05/15 04:04:49;;;;;;;0.60;0.60;;;9.60;1.00;;;;;;5033279;28;20222;-75
2022/05/15 04:07:15;;;;;;;0.70;0.70;;;9.60;1.00;;;;;;5033585;28;20206;-75
2022/05/15 04:09:40;;;;;;;0.60;0.60;;;9.70;1.00;;;;;;5032841;28;20176;-76
2022/05/15 04:12:11;;;;;;;0.53;0.53;;;9.60;1.00;;;;;;5033318;28;20195;-75
2022/05/15 04:14:38;;;;;;;0.60;0.60;;;9.60;1.00;;;;;;5033117;28;20176;-75
2022/05/15 04:17:04;;;;;;;0.50;0.50;;;9.70;1.00;;;;;;5033178;28;20648;-75
2022/05/15 04:19:30;;;;;;;0.50;0.50;;;9.80;1.00;;;;;;5032690;28;20176;-75
2022/05/15 04:21:58;;;;;;;0.60;0.60;;;9.80;1.00;;;;;;5032887;28;20684;-75
2022/05/15 04:24:24;;;;;;;0.70;0.70;;;9.90;1.00;;;;;;5032993;28;20215;-76
2022/05/15 04:26:49;;;;;;;0.60;0.60;;;9.90;1.00;;;;;;5033037;28;20168;-75
2022/05/15 04:29:16;;;;;;;0.60;0.60;;;9.90;1.00;;;;;;5032346;28;20652;-75
2022/05/15 04:31:41;;;;;;;0.60;0.60;;;10.00;1.00;;;;;;5033094;28;20192;-76
2022/05/15 04:34:07;;;;;;;0.60;0.60;;;10.10;1.00;;;;;;5032722;28;20688;-75
2022/05/15 04:36:34;;;;;;;0.50;0.50;;;10.10;1.00;;;;;;5032828;28;20183;-75
2022/05/15 04:39:01;;;;;;;0.63;0.63;;;10.30;1.00;;;;;;5030853;28;20203;-76
2022/05/15 04:41:27;;;;;;;0.60;0.60;;;10.20;1.00;;;;;;5048273;22;20405;-79
2022/05/15 04:43:53;;;;;;;0.60;0.60;;;10.30;1.00;;;;;;5036080;28;20204;-78
2022/05/15 04:46:18;;;;;;;0.60;0.60;;;10.50;1.00;;;;;;5029509;28;20188;-79
2022/05/15 04:48:44;;;;;;;0.60;0.60;;;10.70;1.00;;;;;;5029474;28;20263;-79
2022/05/15 04:51:09;;;;;;;0.53;0.53;;;10.80;1.00;;;;;;5037586;28;20249;-80
2022/05/15 04:53:35;;;;;;;0.53;0.53;;;10.90;1.00;;;;;;5039281;28;20249;-80
2022/05/15 04:56:01;;;;;;;0.60;0.60;;;11.00;1.00;;;;;;5030315;28;20191;-79
2022/05/15 04:58:27;;;;;;;0.50;0.50;;;10.90;1.00;;;;;;5022134;28;20181;-78
2022/05/15 05:00:53;;;;;;;0.40;0.40;;;10.80;1.00;;;;;;5021579;28;20196;-78
2022/05/15 05:03:19;;;;;;;0.50;0.50;;;10.80;1.00;;;;;;5026955;28;20207;-78
2022/05/15 05:05:44;;;;;;;0.50;0.50;;;10.50;1.00;;;;;;5027944;28;20220;-78
2022/05/15 05:08:12;;;;;;;0.50;0.50;;;10.70;1.00;;;;;;5030576;28;20176;-78
2022/05/15 05:10:39;;;;;;;0.57;0.57;;;10.90;1.00;;;;;;5028339;28;20191;-78
2022/05/15 05:13:05;;;;;;;0.60;0.60;;;11.00;1.00;;;;;;5025960;28;20184;-79
2022/05/15 05:15:31;;;;;;;0.60;0.60;;;11.00;1.00;;;;;;5028788;28;20185;-78
2022/05/15 05:17:57;;;;;;;0.63;0.63;;;11.10;1.00;;;;;;5022373;28;20187;-78
2022/05/15 05:20:24;;;;;;;0.50;0.50;;;11.20;1.00;;;;;;5019715;28;20242;-79
2022/05/15 05:22:49;;;;;;;0.50;0.50;;;11.30;1.00;;;;;;5028014;28;20173;-79
2022/05/15 05:25:15;;;;;;;0.50;0.50;;;11.30;1.00;;;;;;5027931;28;20219;-80
2022/05/15 05:27:42;;;;;;;0.50;0.50;;;11.30;1.00;;;;;;5025726;28;20176;-80
2022/05/15 05:30:13;;;;;;;0.50;0.50;;;11.30;1.00;;;;;;5023187;28;20270;-79
2022/05/15 05:32:39;;;;;;;0.50;0.50;;;11.40;1.00;;;;;;5024403;28;20197;-79
2022/05/15 05:35:05;;;;;;;0.50;0.50;;;11.50;1.00;;;;;;5025668;28;20176;-78
2022/05/15 05:37:31;;;;;;;0.60;0.60;;;11.60;1.00;;;;;;5021725;28;20177;-79
2022/05/15 05:39:57;;;;;;;0.50;0.50;;;11.70;1.00;;;;;;5019436;28;20207;-79
2022/05/15 05:42:22;;;;;;;0.50;0.50;;;11.80;1.00;;;;;;5030084;28;20243;-79
2022/05/15 05:44:48;;;;;;;0.40;0.40;;;12.10;1.00;;;;;;5016282;28;20219;-79
2022/05/15 05:47:13;;;;;;;0.50;0.50;;;12.30;1.00;;;;;;5015268;28;20172;-78
2022/05/15 05:49:39;;;;;;;0.50;0.50;;;12.50;1.00;;;;;;5014612;28;20184;-80
2022/05/15 05:52:05;;;;;;;0.50;0.50;;;12.90;1.00;;;;;;5016802;28;20223;-77
2022/05/15 05:54:31;;;;;;;0.50;0.50;;;13.20;99.90;;;;;;5017597;28;20563;-79
2022/05/15 05:56:58;;;;;;;0.40;0.40;;;13.40;1.00;;;;;;5017585;28;20177;-79
2022/05/15 05:59:24;;;;;;;0.40;0.40;;;13.40;1.00;;;;;;5016949;28;20180;-79
2022/05/15 06:01:50;;;;;;;0.40;0.40;;;13.60;99.90;;;;;;5017389;28;20188;-79
2022/05/15 06:06:59;;;;;;;0.50;0.50;;;13.90;1.00;;;;;;5015601;28;20187;-79
2022/05/15 06:09:25;;;;;;;0.40;0.40;;;14.10;1.00;;;;;;5014466;28;20168;-79
2022/05/15 06:11:50;;;;;;;0.40;0.40;;;14.00;1.00;;;;;;5015696;28;20546;-78
2022/05/15 06:14:16;;;;;;;0.40;0.40;;;13.90;1.00;;;;;;5015067;28;20704;-79
2022/05/15 06:16:42;;;;;;;0.47;0.47;;;13.90;1.00;;;;;;5023831;28;20175;-78
2022/05/15 06:19:08;;;;;;;0.47;0.47;;;14.00;1.00;;;;;;5050166;28;20644;-78
2022/05/15 06:21:34;;;;;;;0.40;0.40;;;14.20;99.90;;;;;;5036797;28;20204;-78
2022/05/15 06:23:59;;;;;;;0.50;0.50;;;14.30;99.90;;;;;;5017966;28;20577;-78
2022/05/15 06:26:25;;;;;;;0.40;0.40;;;14.40;1.00;;;;;;5012694;28;20183;-77
2022/05/15 06:28:50;;;;;;;0.50;0.50;;;14.20;1.00;;;;;;5012541;28;20184;-79
2022/05/15 06:31:16;;;;;;;0.47;0.47;;;14.10;72.60;;;;;;5013064;28;20622;-77
2022/05/15 06:33:41;;;;;;;0.50;0.50;;;14.30;1.00;;;;;;5020059;28;20168;-78
2022/05/15 06:36:07;;;;;;;0.37;0.37;;;14.30;1.00;;;;;;5024636;28;20191;-79
2022/05/15 06:38:33;;;;;;;0.50;0.50;;;14.30;1.00;;;;;;5025039;28;20601;-77
2022/05/15 06:40:58;;;;;;;0.50;0.50;;;14.60;1.00;;;;;;5021066;28;20192;-79
2022/05/15 06:43:24;;;;;;;0.40;0.40;;;14.70;1.00;;;;;;5024483;28;20193;-78
2022/05/15 06:45:49;;;;;;;0.50;0.50;;;14.70;1.00;;;;;;5025151;28;20220;-79
2022/05/15 06:48:15;;;;;;;0.40;0.40;;;14.70;1.00;;;;;;5021923;28;20259;-79
2022/05/15 06:50:41;;;;;;;0.30;0.30;;;14.90;9.40;;;;;;5014222;28;20423;-80
2022/05/15 06:53:12;;;;;;;0.30;0.30;;;15.20;1.00;;;;;;5021297;28;20685;-79
2022/05/15 06:57:28;;;;;;;0.50;0.50;;;15.30;1.00;;;;;;5022392;28;20653;-79
2022/05/15 06:58:23;;;;;;;0.30;0.30;;;15.40;1.00;;;;;;5023758;28;20192;-79
2022/05/15 07:00:48;;;;;;;0.40;0.40;;;15.30;1.00;;;;;;5026813;28;20200;-78
2022/05/15 07:03:15;;;;;;;0.40;0.40;;;15.50;1.00;;;;;;5020484;28;20642;-76
2022/05/15 07:05:40;;;;;;;0.50;0.50;;;15.70;1.00;;;;;;5014581;28;20216;-78
2022/05/15 07:08:08;;;;;;;0.50;0.50;;;15.90;1.60;;;;;;5013242;28;20181;-78
2022/05/15 07:10:34;;;;;;;0.50;0.50;;;16.30;99.90;;;;;;5013128;28;20180;-77
2022/05/15 07:12:59;;;;;;;0.40;0.40;;;16.50;99.90;;;;;;5012701;28;20669;-79
2022/05/15 07:15:25;;;;;;;0.40;0.40;;;16.70;99.90;;;;;;5006923;28;20264;-78
2022/05/15 07:17:51;;;;;;;0.40;0.40;;;16.90;99.90;;;;;;5019123;28;20168;-76
2022/05/15 07:20:16;;;;;;;0.30;0.30;;;17.20;99.90;;;;;;5014153;28;20180;-76
2022/05/15 07:22:42;;;;;;;0.43;0.43;;;17.40;99.90;;;;;;5014854;28;20251;-76
2022/05/15 07:25:07;;;;;;;0.40;0.40;;;17.70;1.00;;;;;;5014959;28;20240;-77
2022/05/15 07:27:33;;;;;;;0.30;0.30;;;17.80;24.50;;;;;;5016222;28;20200;-76
2022/05/15 07:29:58;;;;;;;0.30;0.30;;;17.90;1.00;;;;;;5016856;28;20196;-77
2022/05/15 07:32:24;;;;;;;0.30;0.30;;;18.00;1.00;;;;;;5013808;28;20204;-78
2022/05/15 07:34:50;;;;;;;0.30;0.30;;;18.20;1.00;;;;;;5014728;28;20173;-76
2022/05/15 07:37:17;;;;;;;0.30;0.30;;;18.40;1.00;;;;;;5014200;28;20184;-75
2022/05/15 07:39:43;;;;;;;0.37;0.37;;;18.70;1.00;;;;;;5014255;28;20184;-76
2022/05/15 07:42:09;;;;;;;0.30;0.30;;;19.10;1.00;;;;;;5014035;28;20223;-76
2022/05/15 07:44:34;;;;;;;0.30;0.30;;;19.80;1.00;;;;;;5014194;28;20705;-78
2022/05/15 07:47:00;;;;;;;0.30;0.30;;;20.50;1.00;;;;;;5014063;28;20207;-78
2022/05/15 07:49:26;;;;;;;0.40;0.40;;;20.90;1.00;;;;;;5013418;28;20181;-76
2022/05/15 07:51:51;;;;;;;0.30;0.30;;;21.60;1.00;;;;;;5012850;28;20251;-76
2022/05/15 07:54:18;;;;;;;0.40;0.40;;;22.10;1.00;;;;;;5014092;28;20200;-75
2022/05/15 07:56:44;;;;;;;0.30;0.30;;;22.60;1.00;;;;;;5013599;28;20191;-77
2022/05/15 07:59:14;;;;;;;0.30;0.30;;;23.00;1.00;;;;;;5013675;28;20574;-76
2022/05/15 08:01:40;;;;;;;0.30;0.30;;;23.50;1.00;;;;;;5013729;28;20202;-74
2022/05/15 08:04:06;;;;;;;0.20;0.20;;;23.60;1.00;;;;;;5013664;28;20216;-76
2022/05/15 08:09:16;;;;;;;0.30;0.30;;;23.70;1.00;;;;;;5014010;28;20215;-77
2022/05/15 08:11:42;;;;;;;0.30;0.30;;;23.60;1.00;;;;;;5015017;28;20196;-76
2022/05/15 08:14:08;;;;;;;0.30;0.30;;;23.80;1.00;;;;;;5013916;28;20197;-78
2022/05/15 08:16:35;;;;;;;0.30;0.30;;;24.10;1.00;;;;;;5013431;28;20188;-81
2022/05/15 08:24:31;;;;;;;0.40;0.40;;;24.10;1.00;;;;;;5014923;28;20274;-75
2022/05/15 08:26:56;;;;;;;0.20;0.20;;;24.00;1.00;;;;;;5013870;28;20177;-75
2022/05/15 08:29:22;;;;;;;0.40;0.40;;;23.90;1.00;;;;;;5013143;28;20279;-74
2022/05/15 08:31:48;;;;;;;0.30;0.30;;;24.20;1.00;;;;;;5012635;28;20210;-76
2022/05/15 08:34:14;;;;;;;0.30;0.30;;;24.30;1.00;;;;;;5012933;28;20699;-75
2022/05/15 08:36:42;;;;;;;0.30;0.30;;;24.90;1.00;;;;;;5012848;28;20727;-72
2022/05/15 08:39:09;;;;;;;0.30;0.30;;;25.20;1.00;;;;;;5011662;28;20184;-73
2022/05/15 08:41:51;;;;;;;0.30;0.30;;;24.80;1.00;;;;;;5012981;28;20227;-73
2022/05/15 08:44:23;;;;;;;0.30;0.30;;;24.70;1.00;;;;;;5012509;28;20295;-72
2022/05/15 08:46:48;;;;;;;0.47;0.47;;;24.90;1.00;;;;;;5013132;28;20251;-73
2022/05/15 08:49:29;;;;;;;0.33;0.33;;;25.10;1.00;;;;;;5012649;28;20180;-73
2022/05/15 08:52:20;;;;;;;0.30;0.30;;;25.00;1.00;;;;;;5013650;28;20196;-74
2022/05/15 08:54:55;;;;;;;0.30;0.30;;;24.90;1.00;;;;;;5010632;28;20675;-73
2022/05/15 08:57:39;;;;;;;0.30;0.30;;;25.20;1.00;;;;;;5018131;28;20191;-74
2022/05/15 09:00:13;;;;;;;0.50;0.50;;;24.80;1.00;;;;;;5011935;28;20184;-73
2022/05/15 09:02:41;;;;;;;0.50;0.50;;;24.70;1.00;;;;;;5011489;28;20207;-72
2022/05/15 09:05:08;;;;;;;0.40;0.40;;;24.90;1.00;;;;;;5012880;28;20219;-75
2022/05/15 09:07:46;;;;;;;0.30;0.30;;;25.00;1.00;;;;;;5012518;28;20605;-74
2022/05/15 09:10:37;;;;;;;0.30;0.30;;;25.10;1.00;;;;;;5010522;28;20164;-75
2022/05/15 09:13:36;;;;;;;0.40;0.40;;;25.60;1.00;;;;;;5018932;28;20264;-74
2022/05/15 09:16:03;;;;;;;0.33;0.33;;;26.20;1.00;;;;;;5003857;28;20176;-75
2022/05/15 09:18:33;;;;;;;0.30;0.30;;;26.50;1.00;;;;;;5011077;28;20528;-75
2022/05/15 09:21:06;;;;;;;0.43;0.43;;;27.00;1.00;;;;;;5009089;28;20267;-74
2022/05/15 09:23:34;;;;;;;0.40;0.40;;;27.40;1.00;;;;;;5010157;28;20218;-75
2022/05/15 09:26:26;;;;;;;0.50;0.50;;;27.30;1.00;;;;;;5011601;28;20291;-74
2022/05/15 09:28:53;;;;;;;0.40;0.40;;;27.40;1.00;;;;;;5011521;28;20165;-75
2022/05/15 09:31:27;;;;;;;0.23;0.23;;;27.70;1.00;;;;;;5007527;28;20248;-75
2022/05/15 09:34:03;;;;;;;0.40;0.40;;;27.50;1.00;;;;;;5009502;28;20184;-74
2022/05/15 09:36:30;;;;;;;0.33;0.33;;;27.10;1.00;;;;;;5011170;28;20176;-75
2022/05/15 09:39:17;;;;;;;0.40;0.40;;;27.00;1.00;;;;;;5011448;28;20210;-76
2022/05/15 09:44:34;;;;;;;0.37;0.37;;;27.50;1.00;;;;;;5015247;28;20262;-78
2022/05/15 09:47:02;;;;;;;0.40;0.40;;;27.50;1.00;;;;;;5011002;28;20181;-78
2022/05/15 09:49:33;;;;;;;0.50;0.50;;;27.30;1.00;;;;;;5011556;28;20272;-77
2022/05/15 09:52:21;;;;;;;0.40;0.40;;;27.30;1.00;;;;;;5012376;28;20200;-82
2022/05/15 09:54:49;;;;;;;0.30;0.30;;;27.20;1.00;;;;;;5016145;28;20385;-78
2022/05/15 09:57:17;;;;;;;0.50;0.50;;;26.80;1.00;;;;;;5013086;28;20172;-79
2022/05/15 09:59:59;;;;;;;0.30;0.30;;;27.00;1.00;;;;;;5011915;28;20187;-78
2022/05/15 10:02:39;;;;;;;0.40;0.40;;;27.20;1.00;;;;;;5012658;28;20288;-78
2022/05/15 10:05:18;;;;;;;0.50;0.50;;;27.40;1.00;;;;;;5012867;28;20773;-77
2022/05/15 10:07:56;;;;;;;0.40;0.40;;;27.60;1.00;;;;;;5010293;28;20219;-77
2022/05/15 10:10:26;;;;;;;0.30;0.30;;;27.90;1.00;;;;;;5008567;28;20181;-77
2022/05/15 10:13:18;;;;;;;0.37;0.37;;;28.00;1.00;;;;;;5011698;28;20534;-79
2022/05/15 10:15:48;;;;;;;0.30;0.30;;;27.30;1.00;;;;;;5011022;28;20184;-78
2022/05/15 10:18:20;;;;;;;0.50;0.50;;;27.10;1.00;;;;;;5011390;28;20618;-78
2022/05/15 10:20:48;;;;;;;0.60;0.60;;;27.00;1.00;;;;;;5010966;28;20636;-77
2022/05/15 10:23:18;;;;;;;0.40;0.40;;;27.30;1.00;;;;;;5011247;28;20176;-78
2022/05/15 10:25:54;;;;;;;0.30;0.30;;;26.90;1.00;;;;;;5010998;28;20224;-78
2022/05/15 10:28:32;;;;;;;0.30;0.30;;;26.70;1.00;;;;;;5009463;28;20226;-77
2022/05/15 10:31:25;;;;;;;0.50;0.50;;;26.80;1.00;;;;;;5010480;28;20570;-78
2022/05/15 10:33:55;;;;;;;0.43;0.43;;;26.70;1.00;;;;;;5010246;28;20181;-77
2022/05/15 10:36:25;;;;;;;0.30;0.30;;;26.50;1.00;;;;;;5014640;28;20176;-77
2022/05/15 10:39:18;;;;;;;0.30;0.30;;;26.70;1.00;;;;;;5013639;28;20264;-83
2022/05/15 10:42:13;;;;;;;0.30;0.30;;;27.00;1.00;;;;;;5014271;28;20595;-77
2022/05/15 10:45:03;;;;;;;0.30;0.30;;;27.50;1.00;;;;;;5050366;23;20603;-79
2022/05/15 10:47:45;;;;;;;0.40;0.40;;;27.50;1.00;;;;;;5006927;28;20207;-77
2022/05/15 10:50:24;;;;;;;0.43;0.43;;;27.30;1.00;;;;;;5004882;28;20169;-78
2022/05/15 11:00:10;;;;;;;0.50;0.50;;;27.60;1.00;;;;;;4966701;28;20177;-78
2022/05/15 11:02:54;;;;;;;0.30;0.30;;;27.50;1.00;;;;;;4976810;28;20689;-77
2022/05/15 11:05:27;;;;;;;0.33;0.33;;;27.30;1.00;;;;;;4976423;28;20216;-77
2022/05/15 11:08:05;;;;;;;0.33;0.33;;;27.20;1.00;;;;;;4976171;28;20204;-76
2022/05/15 11:11:12;;;;;;;0.20;0.20;;;27.50;1.00;;;;;;4975965;28;20548;-77
2022/05/15 11:13:57;;;;;;;0.43;0.43;;;27.60;1.00;;;;;;4976358;28;20186;-78
2022/05/15 11:16:49;;;;;;;0.30;0.30;;;27.60;1.00;;;;;;4977394;28;20201;-77
2022/05/15 11:19:34;;;;;;;0.40;0.40;;;28.00;1.00;;;;;;4975238;28;20276;-77
2022/05/15 11:22:00;;;;;;;0.30;0.30;;;28.10;1.00;;;;;;4976371;28;20193;-78
2022/05/15 11:24:39;;;;;;;0.30;0.30;;;28.30;1.00;;;;;;4975808;28;20204;-77
2022/05/15 11:27:31;;;;;;;0.40;0.40;;;28.40;1.00;;;;;;4972562;28;20269;-77
2022/05/15 11:29:59;;;;;;;0.30;0.30;;;28.40;1.00;;;;;;4976022;28;20181;-77
2022/05/15 11:33:00;;;;;;;0.30;0.30;;;28.20;1.00;;;;;;4975515;28;20311;-79
2022/05/15 11:35:38;;;;;;;0.30;0.30;;;27.80;1.00;;;;;;4977270;28;20281;-77
2022/05/15 11:38:05;;;;;;;0.40;0.40;;;28.00;1.00;;;;;;4976301;28;20185;-78
2022/05/15 11:40:44;;;;;;;0.40;0.40;;;28.10;1.00;;;;;;4974182;28;20702;-77
2022/05/15 11:43:30;;;;;;;0.27;0.27;;;28.00;1.00;;;;;;4975332;28;20190;-77
2022/05/15 11:46:00;;;;;;;0.40;0.40;;;28.20;1.00;;;;;;4966701;28;20228;-77
2022/05/15 11:48:33;;;;;;;0.50;0.50;;;28.20;1.00;;;;;;4971141;28;20268;-78
2022/05/15 11:51:22;;;;;;;0.40;0.40;;;28.30;1.00;;;;;;4973335;28;20590;-79
2022/05/15 11:54:04;;;;;;;0.40;0.40;;;28.50;1.00;;;;;;4972779;28;20182;-77
2022/05/15 11:56:36;;;;;;;0.30;0.30;;;28.80;1.00;;;;;;4974981;28;20694;-76
2022/05/15 11:59:06;;;;;;;0.30;0.30;;;28.30;1.00;;;;;;4974854;28;20200;-77
2022/05/15 12:01:35;;;;;;;0.40;0.40;;;27.70;1.00;;;;;;4975650;28;20194;-77
2022/05/15 12:04:23;;;;;;;0.37;0.37;;;27.70;1.00;;;;;;4975147;28;20285;-77
2022/05/15 12:06:55;;;;;;;0.33;0.33;;;28.30;1.00;;;;;;4961527;28;20695;-77
2022/05/15 12:09:20;;;;;;;0.30;0.30;;;28.40;1.00;;;;;;4974781;28;20174;-77
2022/05/15 12:11:51;;;;;;;0.30;0.30;;;28.10;1.00;;;;;;4974169;28;20594;-77
2022/05/15 12:14:25;;;;;;;0.40;0.40;;;27.80;1.00;;;;;;4974664;28;20182;-78
2022/05/15 12:17:22;;;;;;;0.33;0.33;;;28.00;1.00;;;;;;4974480;28;20185;-77
2022/05/15 12:19:49;;;;;;;0.30;0.30;;;28.00;1.00;;;;;;4974100;28;20196;-76
2022/05/15 12:22:16;;;;;;;0.40;0.40;;;28.10;1.00;;;;;;4974794;28;20221;-77
2022/05/15 12:24:48;;;;;;;0.43;0.43;;;28.00;1.00;;;;;;4974778;28;20268;-77
2022/05/15 12:27:20;;;;;;;0.40;0.40;;;27.70;1.00;;;;;;4974638;28;20182;-77
2022/05/15 12:30:07;;;;;;;0.50;0.50;;;27.80;1.00;;;;;;4974038;28;20209;-78
2022/05/15 12:32:37;;;;;;;0.47;0.47;;;28.00;1.00;;;;;;4974465;28;20194;-77
2022/05/15 12:35:10;;;;;;;0.40;0.40;;;28.20;1.00;;;;;;4974414;28;20185;-77
2022/05/15 12:37:53;;;;;;;0.40;0.40;;;28.30;1.00;;;;;;4974590;28;20181;-76
2022/05/15 12:40:31;;;;;;;0.40;0.40;;;28.40;1.00;;;;;;4973510;28;20663;-77
2022/05/15 12:42:57;;;;;;;0.30;0.30;;;28.50;1.00;;;;;;4974686;28;20208;-76
2022/05/15 12:45:23;;;;;;;0.30;0.30;;;28.60;1.00;;;;;;4974501;28;20217;-78
2022/05/15 12:48:10;;;;;;;0.40;0.40;;;28.10;1.00;;;;;;4973901;28;20177;-78
2022/05/15 12:51:02;;;;;;;0.30;0.30;;;27.80;1.00;;;;;;4973539;28;20213;-78
2022/05/15 12:53:37;;;;;;;0.30;0.30;;;27.70;1.00;;;;;;4974562;28;20186;-76
2022/05/15 12:56:32;;;;;;;0.33;0.33;;;27.40;1.00;;;;;;4973716;28;20573;-76
2022/05/15 12:59:13;;;;;;;0.40;0.40;;;27.50;1.00;;;;;;4965441;28;20174;-76
2022/05/15 13:01:38;;;;;;;0.30;0.30;;;27.90;1.00;;;;;;4973215;28;20236;-78
2022/05/15 13:04:06;;;;;;;0.30;0.30;;;28.00;1.00;;;;;;4971136;28;20695;-77
2022/05/15 13:06:39;;;;;;;0.40;0.40;;;27.70;1.00;;;;;;4977112;28;20565;-78
2022/05/15 13:09:10;;;;;;;0.40;0.40;;;27.70;1.00;;;;;;4973694;28;20201;-76
2022/05/15 13:11:43;;;;;;;0.50;0.50;;;27.60;1.00;;;;;;4974651;28;20198;-77
2022/05/15 13:14:23;;;;;;;0.50;0.50;;;27.50;1.00;;;;;;4974832;28;20233;-77
2022/05/15 13:16:52;;;;;;;0.30;0.30;;;27.70;1.00;;;;;;4976939;28;20646;-77
2022/05/15 13:19:27;;;;;;;0.30;0.30;;;27.80;1.00;;;;;;4974021;28;20178;-77
2022/05/15 13:21:53;;;;;;;0.37;0.37;;;27.70;1.00;;;;;;4974155;28;20205;-78
2022/05/15 13:24:21;;;;;;;0.50;0.50;;;27.50;1.00;;;;;;4974989;28;20213;-77
2022/05/15 13:26:49;;;;;;;0.30;0.30;;;27.80;1.00;;;;;;4974481;28;20210;-77
2022/05/15 13:29:18;;;;;;;0.30;0.30;;;28.10;1.00;;;;;;4974930;28;20200;-76
2022/05/15 13:31:46;;;;;;;0.40;0.40;;;28.30;1.00;;;;;;4975545;28;20213;-76
2022/05/15 13:34:14;;;;;;;0.30;0.30;;;28.10;1.00;;;;;;4975798;28;20524;-78
2022/05/15 13:36:50;;;;;;;0.30;0.30;;;27.90;1.00;;;;;;4976367;28;20559;-76